createdAt,value
2023-01-21T00:01:50.730Z,-0.89
2023-01-21T00:03:53.649Z,-0.86
2023-01-21T00:05:58.221Z,-0.81
2023-01-21T00:08:02.754Z,-0.82
2023-01-21T00:10:06.935Z,-0.78
2023-01-21T00:12:11.218Z,-0.82
2023-01-21T00:14:14.072Z,-0.81
2023-01-21T00:16:17.474Z,-0.80
2023-01-21T00:18:20.365Z,-0.89
2023-01-21T00:20:23.195Z,-0.94
2023-01-21T00:22:26.302Z,-0.93
2023-01-21T00:24:29.312Z,-0.93
2023-01-21T00:26:32.428Z,-0.90
2023-01-21T00:28:37.751Z,-0.97
2023-01-21T00:30:41.646Z,-0.93
2023-01-21T00:32:44.626Z,-0.91
2023-01-21T00:34:47.855Z,-0.94
2023-01-21T00:36:50.818Z,-0.93
2023-01-21T00:38:53.971Z,-0.94
2023-01-21T00:41:01.496Z,-0.99
2023-01-21T00:43:04.371Z,-0.99
2023-01-21T00:45:10.973Z,-1.13
2023-01-21T00:47:14.042Z,-1.17
2023-01-21T00:49:16.951Z,-1.15
2023-01-21T00:51:21.651Z,-1.21
2023-01-21T00:53:24.893Z,-1.17
2023-01-21T00:55:27.844Z,-1.21
2023-01-21T00:57:30.851Z,-1.20
2023-01-21T00:59:33.938Z,-1.18
2023-01-21T01:01:38.649Z,-1.18
2023-01-21T01:03:42.195Z,-1.19
2023-01-21T01:05:45.055Z,-1.22
2023-01-21T01:07:47.935Z,-1.26
2023-01-21T01:09:52.168Z,-1.23
2023-01-21T01:11:57.106Z,-1.19
2023-01-21T01:14:02.727Z,-1.25
2023-01-21T01:16:06.834Z,-1.23
2023-01-21T01:18:11.106Z,-1.26
2023-01-21T01:20:14.753Z,-1.27
2023-01-21T01:22:18.233Z,-1.29
2023-01-21T01:24:21.569Z,-1.27
2023-01-21T01:26:24.393Z,-1.27
2023-01-21T01:28:27.547Z,-1.28
2023-01-21T01:30:30.699Z,-1.31
2023-01-21T01:32:33.579Z,-1.34
2023-01-21T01:34:38.661Z,-1.37
2023-01-21T01:36:41.664Z,-1.34
2023-01-21T01:38:45.088Z,-1.30
2023-01-21T01:40:48.345Z,-1.32
2023-01-21T01:42:51.210Z,-1.36
2023-01-21T01:44:58.192Z,-1.32
2023-01-21T01:47:01.768Z,-1.31
2023-01-21T01:49:10.490Z,-1.31
2023-01-21T01:51:16.551Z,-1.36
2023-01-21T01:53:20.102Z,-1.36
2023-01-21T01:55:23.577Z,-1.36
2023-01-21T01:57:34.173Z,-1.36
2023-01-21T01:59:37.791Z,-1.33
2023-01-21T02:01:41.240Z,-1.34
2023-01-21T02:03:46.791Z,-1.37
2023-01-21T02:05:50.045Z,-1.38
2023-01-21T02:07:54.444Z,-1.41
2023-01-21T02:09:59.989Z,-1.39
2023-01-21T02:12:04.709Z,-1.38
2023-01-21T02:14:07.978Z,-1.37
2023-01-21T02:16:24.917Z,-1.40
2023-01-21T02:18:36.842Z,-1.40
2023-01-21T02:21:12.284Z,-1.48
2023-01-21T02:23:20.027Z,-1.47
2023-01-21T02:25:54.496Z,-1.52
2023-01-21T02:28:12.074Z,-1.48
2023-01-21T02:30:41.749Z,-1.49
2023-01-21T02:33:02.259Z,-1.51
2023-01-21T02:35:10.213Z,-1.50
2023-01-21T02:37:15.309Z,-1.52
2023-01-21T02:39:28.365Z,-1.53
2023-01-21T02:41:39.540Z,-1.54
2023-01-21T02:43:48.755Z,-1.54
2023-01-21T02:45:54.767Z,-1.56
2023-01-21T02:48:06.030Z,-1.58
2023-01-21T02:50:13.696Z,-1.65
2023-01-21T02:52:20.393Z,-1.71
2023-01-21T02:54:52.141Z,-1.74
2023-01-21T02:56:55.137Z,-1.69
2023-01-21T02:59:00.471Z,-1.73
2023-01-21T03:01:12.843Z,-1.68
2023-01-21T03:03:39.280Z,-1.67
2023-01-21T03:05:52.642Z,-1.62
2023-01-21T03:08:00.160Z,-1.59
2023-01-21T03:10:06.530Z,-1.63
2023-01-21T03:12:31.442Z,-1.60
2023-01-21T03:14:56.295Z,-1.59
2023-01-21T03:17:01.762Z,-1.58
2023-01-21T03:19:07.757Z,-1.55
2023-01-21T03:21:14.455Z,-1.56
2023-01-21T03:23:22.036Z,-1.62
2023-01-21T03:25:26.221Z,-1.64
2023-01-21T03:27:32.365Z,-1.61
2023-01-21T03:29:36.370Z,-1.61
2023-01-21T03:31:43.016Z,-1.63
2023-01-21T03:33:51.032Z,-1.58
2023-01-21T03:35:57.004Z,-1.62
2023-01-21T03:38:02.349Z,-1.60
2023-01-21T03:40:15.423Z,-1.54
2023-01-21T03:42:18.958Z,-1.51
2023-01-21T03:44:22.105Z,-1.50
2023-01-21T03:46:28.763Z,-1.49
2023-01-21T03:48:37.218Z,-1.50
2023-01-21T03:50:43.348Z,-1.52
2023-01-21T03:52:47.982Z,-1.51
2023-01-21T03:54:50.967Z,-1.52
2023-01-21T03:56:53.916Z,-1.53
2023-01-21T03:58:57.135Z,-1.55
2023-01-21T04:01:00.232Z,-1.59
2023-01-21T04:03:03.699Z,-1.65
2023-01-21T04:05:07.525Z,-1.58
2023-01-21T04:07:11.262Z,-1.58
2023-01-21T04:09:15.504Z,-1.57
2023-01-21T04:11:18.723Z,-1.57
2023-01-21T04:13:21.583Z,-1.59
2023-01-21T04:15:24.703Z,-1.59
2023-01-21T04:17:28.282Z,-1.61
2023-01-21T04:19:31.547Z,-1.62
2023-01-21T04:21:34.464Z,-1.64
2023-01-21T04:23:37.294Z,-1.66
2023-01-21T04:25:41.537Z,-1.66
2023-01-21T04:27:44.490Z,-1.69
2023-01-21T04:29:47.355Z,-1.69
2023-01-21T04:31:50.267Z,-1.71
2023-01-21T04:33:53.143Z,-1.76
2023-01-21T04:35:58.498Z,-1.77
2023-01-21T04:38:01.356Z,-1.79
2023-01-21T04:40:04.677Z,-1.81
2023-01-21T04:42:10.010Z,-1.87
2023-01-21T04:44:16.939Z,-1.91
2023-01-21T04:46:22.014Z,-1.92
2023-01-21T04:48:26.158Z,-1.92
2023-01-21T04:50:32.472Z,-1.93
2023-01-21T04:52:36.233Z,-1.95
2023-01-21T04:54:43.341Z,-2.07
2023-01-21T04:56:49.135Z,-2.01
2023-01-21T04:58:53.860Z,-2.00
2023-01-21T05:00:59.859Z,-2.06
2023-01-21T05:03:04.098Z,-2.11
2023-01-21T05:05:10.441Z,-2.09
2023-01-21T05:07:16.896Z,-2.08
2023-01-21T05:09:20.125Z,-2.05
2023-01-21T05:11:25.671Z,-2.03
2023-01-21T05:13:28.588Z,-2.03
2023-01-21T05:15:35.751Z,-2.03
2023-01-21T05:17:39.226Z,-2.04
2023-01-21T05:19:42.932Z,-2.11
2023-01-21T05:21:45.785Z,-2.19
2023-01-21T05:23:54.861Z,-2.18
2023-01-21T05:25:58.210Z,-2.15
2023-01-21T05:28:03.161Z,-2.18
2023-01-21T05:30:08.566Z,-2.42
2023-01-21T05:32:14.931Z,-2.28
2023-01-21T05:34:20.750Z,-2.23
2023-01-21T05:36:24.956Z,-2.22
2023-01-21T05:38:33.263Z,-2.24
2023-01-21T05:40:46.018Z,-2.21
2023-01-21T05:42:50.116Z,-2.22
2023-01-21T05:44:56.764Z,-2.23
2023-01-21T05:47:09.879Z,-2.25
2023-01-21T05:49:19.807Z,-2.25
2023-01-21T05:51:23.873Z,-2.25
2023-01-21T05:53:27.922Z,-2.32
2023-01-21T05:55:31.683Z,-2.33
2023-01-21T05:57:45.760Z,-2.34
2023-01-21T05:59:50.460Z,-2.40
2023-01-21T06:02:00.106Z,-2.42
2023-01-21T06:04:04.792Z,-2.44
2023-01-21T06:06:10.217Z,-2.38
2023-01-21T06:08:18.345Z,-2.42
2023-01-21T06:10:22.928Z,-2.40
2023-01-21T06:12:26.781Z,-2.38
2023-01-21T06:14:35.527Z,-2.39
2023-01-21T06:16:38.984Z,-2.39
2023-01-21T06:18:42.743Z,-2.38
2023-01-21T06:20:53.831Z,-2.35
2023-01-21T06:23:00.286Z,-2.28
2023-01-21T06:25:04.394Z,-2.28
2023-01-21T06:27:10.165Z,-2.24
2023-01-21T06:29:13.385Z,-2.29
2023-01-21T06:31:16.955Z,-2.19
2023-01-21T06:33:22.454Z,-2.13
2023-01-21T06:35:25.773Z,-2.30
2023-01-21T06:37:29.586Z,-2.10
2023-01-21T06:39:36.356Z,-2.13
2023-01-21T06:41:39.692Z,-2.01
2023-01-21T06:43:44.611Z,-2.00
2023-01-21T06:45:49.648Z,-1.89
2023-01-21T06:47:54.416Z,-1.82
2023-01-21T06:49:58.260Z,-1.77
2023-01-21T06:52:01.670Z,-1.87
2023-01-21T06:54:04.819Z,-1.79
2023-01-21T06:56:09.975Z,-1.68
2023-01-21T06:58:13.710Z,-1.63
2023-01-21T07:00:20.400Z,-1.60
2023-01-21T07:02:23.792Z,-1.59
2023-01-21T07:04:27.279Z,-1.47
2023-01-21T07:06:32.742Z,-1.41
2023-01-21T07:08:36.173Z,-1.35
2023-01-21T07:10:39.466Z,-1.31
2023-01-21T07:12:45.708Z,-1.28
2023-01-21T07:14:50.225Z,-1.29
2023-01-21T07:16:53.795Z,-1.36
2023-01-21T07:18:59.114Z,-1.25
2023-01-21T07:21:02.307Z,-1.21
2023-01-21T07:23:06.061Z,-1.16
2023-01-21T07:25:10.366Z,-1.11
2023-01-21T07:27:18.128Z,-1.09
2023-01-21T07:29:24.235Z,-1.11
2023-01-21T07:31:27.628Z,-1.00
2023-01-21T07:33:32.152Z,-0.97
2023-01-21T07:35:35.820Z,-1.04
2023-01-21T07:37:39.575Z,-0.97
2023-01-21T07:39:45.068Z,-0.92
2023-01-21T07:41:48.249Z,-0.85
2023-01-21T07:43:55.055Z,-0.86
2023-01-21T07:46:01.295Z,-0.82
2023-01-21T07:48:08.180Z,-0.80
2023-01-21T07:50:12.571Z,-0.77
2023-01-21T07:52:17.207Z,-0.76
2023-01-21T07:54:21.210Z,-0.72
2023-01-21T07:56:25.286Z,-0.69
2023-01-21T07:58:29.880Z,-0.60
2023-01-21T08:00:34.718Z,-0.63
2023-01-21T08:02:40.042Z,-0.56
2023-01-21T08:04:44.315Z,-0.56
2023-01-21T08:06:49.091Z,-0.47
2023-01-21T08:08:52.849Z,-0.43
2023-01-21T08:10:56.864Z,-0.40
2023-01-21T08:13:04.080Z,-0.40
2023-01-21T08:15:09.410Z,-0.42
2023-01-21T08:17:13.830Z,-0.38
2023-01-21T08:19:21.649Z,-0.28
2023-01-21T08:21:25.919Z,-0.24
2023-01-21T08:23:29.356Z,-0.18
2023-01-21T08:25:36.725Z,-0.32
2023-01-21T08:27:42.224Z,-0.18
2023-01-21T08:29:47.120Z,-0.12
2023-01-21T08:31:53.640Z,-0.09
2023-01-21T08:34:00.312Z,-0.03
2023-01-21T08:36:08.719Z,0.00
2023-01-21T08:38:12.043Z,-0.03
2023-01-21T08:40:17.284Z,0.00
2023-01-21T08:42:21.124Z,0.00
2023-01-21T08:48:00.507Z,-0.05
2023-01-21T08:50:04.181Z,0.02
2023-01-21T08:52:17.112Z,0.01
2023-01-21T08:54:20.752Z,0.05
2023-01-21T08:56:24.847Z,0.08
2023-01-21T08:58:28.335Z,0.11
2023-01-21T09:00:32.446Z,0.07
2023-01-21T09:02:36.688Z,0.04
2023-01-21T09:04:40.440Z,0.13
2023-01-21T09:06:52.136Z,0.14
2023-01-21T09:09:01.691Z,0.15
2023-01-21T09:11:07.139Z,0.14
2023-01-21T09:13:12.765Z,0.26
2023-01-21T09:15:16.798Z,0.32
2023-01-21T09:17:20.742Z,0.36
2023-01-21T09:19:26.236Z,0.40
2023-01-21T09:21:37.941Z,0.45
2023-01-21T09:23:42.625Z,0.50
2023-01-21T09:25:49.395Z,0.46
2023-01-21T09:27:55.115Z,0.59
2023-01-21T09:30:00.594Z,0.63
2023-01-21T09:32:05.300Z,0.64
2023-01-21T09:34:13.168Z,0.71
2023-01-21T09:36:20.241Z,0.69
2023-01-21T09:38:28.853Z,0.71
2023-01-21T09:40:32.424Z,0.80
2023-01-21T09:42:43.156Z,0.76
2023-01-21T09:44:49.807Z,0.79
2023-01-21T09:46:59.900Z,0.76
2023-01-21T09:49:05.289Z,0.74
2023-01-21T09:51:18.595Z,0.77
2023-01-21T09:53:32.155Z,0.81
2023-01-21T09:55:41.649Z,0.80
2023-01-21T09:58:09.879Z,0.64
2023-01-21T10:00:25.345Z,0.81
2023-01-21T10:02:34.430Z,0.87
2023-01-21T10:04:44.144Z,0.84
2023-01-21T10:06:50.357Z,0.76
2023-01-21T10:09:34.738Z,0.89
2023-01-21T10:11:47.805Z,0.90
2023-01-21T10:14:04.887Z,0.99
2023-01-21T10:16:13.166Z,0.97
2023-01-21T10:18:19.508Z,1.13
2023-01-21T10:20:25.225Z,1.28
2023-01-21T10:22:29.335Z,1.38
2023-01-21T10:24:38.698Z,1.47
2023-01-21T10:26:42.563Z,1.45
2023-01-21T10:28:49.815Z,1.57
2023-01-21T10:30:55.533Z,1.41
2023-01-21T10:32:58.497Z,1.62
2023-01-21T10:35:01.601Z,1.63
2023-01-21T10:37:12.541Z,1.73
2023-01-21T10:39:24.984Z,1.77
2023-01-21T10:41:36.478Z,1.80
2023-01-21T10:43:43.204Z,1.81
2023-01-21T10:45:50.597Z,1.93
2023-01-21T10:48:01.387Z,1.97
2023-01-21T10:50:22.715Z,2.00
2023-01-21T10:52:30.162Z,2.03
2023-01-21T10:54:43.390Z,1.87
2023-01-21T10:56:51.271Z,1.97
2023-01-21T10:58:57.242Z,1.99
2023-01-21T11:01:02.738Z,1.95
2023-01-21T11:03:12.992Z,1.99
2023-01-21T11:05:16.239Z,2.04
2023-01-21T11:07:20.667Z,2.10
2023-01-21T11:09:25.287Z,2.10
2023-01-21T11:11:30.197Z,2.15
2023-01-21T11:13:33.256Z,2.08
2023-01-21T11:15:46.185Z,2.16
2023-01-21T11:17:53.658Z,1.97
2023-01-21T11:20:00.848Z,2.09
2023-01-21T11:22:06.142Z,1.84
2023-01-21T11:24:23.882Z,1.95
2023-01-21T11:26:28.567Z,1.91
2023-01-21T11:28:31.875Z,1.98
2023-01-21T11:30:49.984Z,2.00
2023-01-21T11:32:54.117Z,1.90
2023-01-21T11:35:04.801Z,2.03
2023-01-21T11:37:09.148Z,2.08
2023-01-21T11:39:15.411Z,2.00
2023-01-21T11:41:21.842Z,1.94
2023-01-21T11:43:36.605Z,1.97
2023-01-21T11:45:39.433Z,2.03
2023-01-21T11:47:49.180Z,2.07
2023-01-21T11:49:52.687Z,2.06
2023-01-21T11:52:17.967Z,1.97
2023-01-21T11:54:21.809Z,1.96
2023-01-21T11:56:25.473Z,2.00
2023-01-21T11:58:30.533Z,1.92
2023-01-21T12:00:35.431Z,2.04
2023-01-21T12:02:41.829Z,1.89
2023-01-21T12:04:47.239Z,1.99
2023-01-21T12:06:53.562Z,1.96
2023-01-21T12:09:01.046Z,2.11
2023-01-21T12:11:06.457Z,2.06
2023-01-21T12:13:16.477Z,2.04
2023-01-21T12:15:30.252Z,2.01
2023-01-21T12:17:42.542Z,1.95
2023-01-21T12:19:55.814Z,2.12
2023-01-21T12:22:31.604Z,2.09
2023-01-21T12:24:46.309Z,2.08
2023-01-21T12:26:52.104Z,2.11
2023-01-21T12:31:13.313Z,2.07
2023-01-21T12:33:20.978Z,1.98
2023-01-21T12:35:27.996Z,2.04
2023-01-21T12:37:34.502Z,2.06
2023-01-21T12:39:38.897Z,2.00
2023-01-21T12:41:43.187Z,1.98
2023-01-21T12:43:48.615Z,1.94
2023-01-21T12:45:54.754Z,1.86
2023-01-21T12:48:01.455Z,1.94
2023-01-21T12:50:19.631Z,2.05
2023-01-21T12:52:25.628Z,2.11
2023-01-21T12:54:35.998Z,2.01
2023-01-21T12:56:43.636Z,2.02
2023-01-21T12:58:52.201Z,2.11
2023-01-21T13:00:56.163Z,2.13
2023-01-21T13:03:10.697Z,2.05
2023-01-21T13:05:17.045Z,2.14
2023-01-21T13:07:30.415Z,2.15
2023-01-21T13:09:39.360Z,2.16
2023-01-21T13:11:46.355Z,2.16
2023-01-21T13:13:56.219Z,2.14
2023-01-21T13:16:03.717Z,2.12
2023-01-21T13:18:12.636Z,2.07
2023-01-21T13:20:18.660Z,2.03
2023-01-21T13:22:30.483Z,2.02
2023-01-21T13:28:43.888Z,2.08
2023-01-21T13:30:51.904Z,1.93
2023-01-21T13:33:01.575Z,1.99
2023-01-21T13:35:18.465Z,1.98
2023-01-21T13:37:29.374Z,1.98
2023-01-21T13:39:38.727Z,1.89
2023-01-21T13:41:58.250Z,1.94
2023-01-21T13:44:32.925Z,1.92
2023-01-21T13:46:50.954Z,1.92
2023-01-21T13:49:10.515Z,1.87
2023-01-21T13:51:27.175Z,1.92
2023-01-21T13:53:54.360Z,1.96
2023-01-21T13:56:04.392Z,1.91
2023-01-21T13:58:20.196Z,1.93
2023-01-21T14:00:29.839Z,1.88
2023-01-21T14:02:40.300Z,1.93
2023-01-21T14:04:59.639Z,1.96
2023-01-21T14:07:13.059Z,1.93
2023-01-21T14:09:24.514Z,1.86
2023-01-21T14:11:32.119Z,1.87
2023-01-21T14:14:11.492Z,1.99
2023-01-21T14:16:41.980Z,1.97
2023-01-21T14:19:16.139Z,2.15
2023-01-21T14:21:39.409Z,2.14
2023-01-21T14:24:01.468Z,2.10
2023-01-21T14:26:23.969Z,2.11
2023-01-21T14:28:52.859Z,2.09
2023-01-21T14:31:10.800Z,2.06
2023-01-21T14:33:19.151Z,2.06
2023-01-21T14:35:28.069Z,2.13
2023-01-21T14:37:38.716Z,2.17
2023-01-21T14:39:52.962Z,2.17
2023-01-21T14:42:14.825Z,2.17
2023-01-21T14:44:37.628Z,2.11
2023-01-21T14:46:41.039Z,2.16
2023-01-21T14:49:01.338Z,2.17
2023-01-21T14:51:13.114Z,2.08
2023-01-21T14:53:34.501Z,2.17
2023-01-21T14:55:37.772Z,2.20
2023-01-21T14:57:44.987Z,2.13
2023-01-21T14:59:48.635Z,2.05
2023-01-21T15:02:01.624Z,1.99
2023-01-21T15:04:07.983Z,2.07
2023-01-21T15:06:13.856Z,1.93
2023-01-21T15:08:26.717Z,1.92
2023-01-21T15:10:33.712Z,2.00
2023-01-21T15:12:37.256Z,1.95
2023-01-21T15:14:54.449Z,1.93
2023-01-21T15:16:58.123Z,2.03
2023-01-21T15:19:27.845Z,2.05
2023-01-21T15:21:44.832Z,2.01
2023-01-21T15:23:55.509Z,2.09
2023-01-21T15:26:18.972Z,1.88
2023-01-21T15:28:40.785Z,2.01
2023-01-21T15:31:00.809Z,1.94
2023-01-21T15:33:04.999Z,2.02
2023-01-21T15:35:17.219Z,2.07
2023-01-21T15:37:23.471Z,2.00
2023-01-21T15:39:34.729Z,2.00
2023-01-21T15:41:45.725Z,2.03
2023-01-21T15:43:55.139Z,1.98
2023-01-21T15:46:05.499Z,2.00
2023-01-21T15:48:41.144Z,1.98
2023-01-21T15:50:52.644Z,1.98
2023-01-21T15:53:29.016Z,1.93
2023-01-21T15:55:53.605Z,1.93
2023-01-21T15:58:07.631Z,1.88
2023-01-21T16:00:27.180Z,1.93
2023-01-21T16:02:34.580Z,1.94
2023-01-21T16:04:42.883Z,1.90
2023-01-21T16:06:55.021Z,1.92
2023-01-21T16:09:06.020Z,1.91
2023-01-21T16:11:26.136Z,1.86
2023-01-21T16:13:38.867Z,1.83
2023-01-21T16:15:52.493Z,1.81
2023-01-21T16:18:07.040Z,1.71
2023-01-21T16:20:11.895Z,1.74
2023-01-21T16:22:20.887Z,1.76
2023-01-21T16:24:27.569Z,1.74
2023-01-21T16:26:33.220Z,1.73
2023-01-21T16:28:46.672Z,1.70
2023-01-21T16:30:55.432Z,1.68
2023-01-21T16:33:13.699Z,1.59
2023-01-21T16:35:20.778Z,1.51
2023-01-21T16:37:27.529Z,1.44
2023-01-21T16:39:33.055Z,1.50
2023-01-21T16:41:37.000Z,1.54
2023-01-21T16:43:45.955Z,1.52
2023-01-21T16:45:51.182Z,1.50
2023-01-21T16:47:56.982Z,1.52
2023-01-21T16:50:00.986Z,1.50
2023-01-21T16:52:05.749Z,1.51
2023-01-21T16:54:33.216Z,1.54
2023-01-21T16:56:39.528Z,1.52
2023-01-21T16:58:49.251Z,1.53
2023-01-21T17:01:08.035Z,1.53
2023-01-21T17:03:13.344Z,1.51
2023-01-21T17:05:19.282Z,1.51
2023-01-21T17:07:26.817Z,1.50
2023-01-21T17:09:35.061Z,1.49
2023-01-21T17:11:46.754Z,1.50
2023-01-21T17:13:52.242Z,1.49
2023-01-21T17:16:00.241Z,1.50
2023-01-21T17:18:05.635Z,1.48
2023-01-21T17:20:34.160Z,1.49
2023-01-21T17:22:41.836Z,1.48
2023-01-21T17:25:09.734Z,1.44
2023-01-21T17:27:22.457Z,1.45
2023-01-21T17:29:30.105Z,1.45
2023-01-21T17:31:38.430Z,1.44
2023-01-21T17:33:44.060Z,1.44
2023-01-21T17:36:09.002Z,1.44
2023-01-21T17:38:30.908Z,1.43
2023-01-21T17:40:39.091Z,1.42
2023-01-21T17:42:43.922Z,1.45
2023-01-21T17:44:49.668Z,1.36
2023-01-21T17:46:54.888Z,1.35
2023-01-21T17:49:01.964Z,1.39
2023-01-21T17:51:07.738Z,1.40
2023-01-21T17:53:21.227Z,1.39
2023-01-21T17:55:33.203Z,1.40
2023-01-21T17:57:39.918Z,1.38
2023-01-21T17:59:46.937Z,1.38
2023-01-21T18:01:51.244Z,1.34
2023-01-21T18:03:55.822Z,1.33
2023-01-21T18:06:00.283Z,1.33
2023-01-21T18:08:08.080Z,1.34
2023-01-21T18:10:15.177Z,1.27
2023-01-21T18:12:22.902Z,1.30
2023-01-21T18:14:29.337Z,1.27
2023-01-21T18:16:34.239Z,1.29
2023-01-21T18:18:37.276Z,1.31
2023-01-21T18:20:41.267Z,1.29
2023-01-21T18:22:44.394Z,1.31
2023-01-21T18:24:47.661Z,1.29
2023-01-21T18:26:53.785Z,1.31
2023-01-21T18:28:57.667Z,1.28
2023-01-21T18:31:04.058Z,1.31
2023-01-21T18:33:13.005Z,1.32
2023-01-21T18:35:18.589Z,1.26
2023-01-21T18:37:22.543Z,1.31
2023-01-21T18:39:27.148Z,1.15
2023-01-21T18:41:30.290Z,1.28
2023-01-21T18:43:34.328Z,1.28
2023-01-21T18:45:39.638Z,1.27
2023-01-21T18:47:44.192Z,1.35
2023-01-21T18:49:49.394Z,1.35
2023-01-21T18:51:52.458Z,1.36
2023-01-21T18:53:55.374Z,1.36
2023-01-21T18:55:58.973Z,1.39
2023-01-21T18:58:02.625Z,1.39
2023-01-21T19:00:22.713Z,1.42
2023-01-21T19:02:25.672Z,1.46
2023-01-21T19:04:30.041Z,1.50
2023-01-21T19:06:32.885Z,1.48
2023-01-21T19:08:35.873Z,1.41
2023-01-21T19:10:39.351Z,1.52
2023-01-21T19:12:42.779Z,1.53
2023-01-21T19:14:46.454Z,1.57
2023-01-21T19:16:49.324Z,1.59
2023-01-21T19:18:52.382Z,1.55
2023-01-21T19:20:58.089Z,1.60
2023-01-21T19:23:00.978Z,1.61
2023-01-21T19:25:04.286Z,1.67
2023-01-21T19:27:08.304Z,1.66
2023-01-21T19:29:15.204Z,1.69
2023-01-21T19:31:18.157Z,1.68
2023-01-21T19:33:22.664Z,1.67
2023-01-21T19:35:30.864Z,1.71
2023-01-21T19:37:36.205Z,1.72
2023-01-21T19:39:39.171Z,1.72
2023-01-21T19:41:42.090Z,1.74
2023-01-21T19:43:46.066Z,1.74
2023-01-21T19:45:49.336Z,1.70
2023-01-21T19:47:52.407Z,1.75
2023-01-21T19:49:55.363Z,1.76
2023-01-21T19:51:58.220Z,1.79
2023-01-21T19:54:02.495Z,1.81
2023-01-21T19:56:07.313Z,1.82
2023-01-21T19:58:15.629Z,1.76
2023-01-21T20:00:22.802Z,1.81
2023-01-21T20:02:25.672Z,1.72
2023-01-21T20:04:29.049Z,1.75
2023-01-21T20:06:36.102Z,1.74
2023-01-21T20:08:39.149Z,1.70
2023-01-21T20:10:43.895Z,1.75
2023-01-21T20:12:47.372Z,1.70
2023-01-21T20:14:50.764Z,1.66
2023-01-21T20:16:55.479Z,1.72
2023-01-21T20:19:02.045Z,1.72
2023-01-21T20:21:05.863Z,1.76
2023-01-21T20:23:13.602Z,1.80
2023-01-21T20:25:17.586Z,1.79
2023-01-21T20:27:21.993Z,1.80
2023-01-21T20:29:26.901Z,1.79
2023-01-21T20:31:30.559Z,1.79
2023-01-21T20:33:33.758Z,1.81
2023-01-21T20:35:36.637Z,1.83
2023-01-21T20:37:43.397Z,1.81
2023-01-21T20:39:46.322Z,1.85
2023-01-21T20:41:49.379Z,1.79
2023-01-21T20:43:53.683Z,1.81
2023-01-21T20:45:58.681Z,1.72
2023-01-21T20:48:04.087Z,1.83
2023-01-21T20:50:14.872Z,1.81
2023-01-21T20:52:17.726Z,1.84
2023-01-21T20:54:20.681Z,1.88
2023-01-21T20:56:26.820Z,1.90
2023-01-21T20:58:33.667Z,1.86
2023-01-21T21:00:38.184Z,1.82
2023-01-21T21:02:41.054Z,1.77
2023-01-21T21:04:44.713Z,1.73
2023-01-21T21:06:47.797Z,1.82
2023-01-21T21:08:51.192Z,1.85
2023-01-21T21:10:55.502Z,1.86
2023-01-21T21:12:58.792Z,1.87
2023-01-21T21:15:03.979Z,1.91
2023-01-21T21:17:13.997Z,1.84
2023-01-21T21:19:18.510Z,1.89
2023-01-21T21:21:23.831Z,1.89
2023-01-21T21:23:30.041Z,1.89
2023-01-21T21:25:38.279Z,1.89
2023-01-21T21:27:43.102Z,1.89
2023-01-21T21:29:47.403Z,1.91
2023-01-21T21:31:52.688Z,1.86
2023-01-21T21:33:59.824Z,1.88
2023-01-21T21:36:06.103Z,1.83
2023-01-21T21:38:13.894Z,1.77
2023-01-21T21:40:17.329Z,1.78
2023-01-21T21:42:41.836Z,1.76
2023-01-21T21:44:46.207Z,1.75
2023-01-21T21:47:07.269Z,1.67
2023-01-21T21:49:12.573Z,1.64
2023-01-21T21:51:19.926Z,1.61
2023-01-21T21:53:27.767Z,1.57
2023-01-21T21:55:32.748Z,1.55
2023-01-21T21:57:36.077Z,1.47
2023-01-21T21:59:39.895Z,1.54
2023-01-21T22:01:48.616Z,1.57
2023-01-21T22:03:52.357Z,1.50
2023-01-21T22:06:01.708Z,1.58
2023-01-21T22:08:08.789Z,1.53
2023-01-21T22:10:13.976Z,1.59
2023-01-21T22:12:16.949Z,1.61
2023-01-21T22:14:19.896Z,1.65
2023-01-21T22:16:24.722Z,1.66
2023-01-21T22:18:32.878Z,1.68
2023-01-21T22:20:35.965Z,1.69
2023-01-21T22:22:40.757Z,1.74
2023-01-21T22:24:44.676Z,1.72
2023-01-21T22:26:49.589Z,1.70
2023-01-21T22:28:55.718Z,1.76
2023-01-21T22:31:07.260Z,1.69
2023-01-21T22:33:11.326Z,1.75
2023-01-21T22:35:17.348Z,1.74
2023-01-21T22:37:20.975Z,1.71
2023-01-21T22:39:25.587Z,1.69
2023-01-21T22:41:31.595Z,1.65
2023-01-21T22:43:37.972Z,1.64
2023-01-21T22:45:49.494Z,1.52
2023-01-21T22:47:52.528Z,1.58
2023-01-21T22:49:55.420Z,1.55
2023-01-21T22:52:00.006Z,1.56
2023-01-21T22:54:07.606Z,1.45
2023-01-21T22:56:17.326Z,1.57
2023-01-21T22:58:20.671Z,1.65
2023-01-21T23:00:39.579Z,1.67
2023-01-21T23:02:43.284Z,1.59
2023-01-21T23:04:47.754Z,1.61
2023-01-21T23:06:55.011Z,1.65
2023-01-21T23:09:00.242Z,1.71
2023-01-21T23:11:04.567Z,1.71
2023-01-21T23:13:09.847Z,1.65
2023-01-21T23:15:13.978Z,1.66
2023-01-21T23:17:18.651Z,1.70
2023-01-21T23:19:22.721Z,1.62
2023-01-21T23:21:30.157Z,1.66
2023-01-21T23:23:39.421Z,1.65
2023-01-21T23:25:42.467Z,1.54
2023-01-21T23:27:46.667Z,1.61
2023-01-21T23:29:52.596Z,1.66
2023-01-21T23:31:59.095Z,1.63
2023-01-21T23:34:03.557Z,1.68
2023-01-21T23:36:09.997Z,1.54
2023-01-21T23:38:14.092Z,1.40
2023-01-21T23:40:21.981Z,1.34
2023-01-21T23:42:28.841Z,1.48
2023-01-21T23:44:34.105Z,1.48
2023-01-21T23:46:40.691Z,1.48
2023-01-21T23:48:44.673Z,1.50
2023-01-21T23:50:50.437Z,1.56
2023-01-21T23:52:56.934Z,1.56
2023-01-21T23:54:59.995Z,1.58
2023-01-21T23:57:03.796Z,1.60
2023-01-21T23:59:07.116Z,1.66
